createdAt,value
2023-05-09T00:01:55.207Z,10.00
2023-05-09T00:04:27.442Z,10.30
2023-05-09T00:06:59.590Z,11.90
2023-05-09T00:09:31.601Z,11.30
2023-05-09T00:12:04.279Z,11.70
2023-05-09T00:14:37.180Z,12.00
2023-05-09T00:17:09.799Z,12.40
2023-05-09T00:19:41.994Z,12.80
2023-05-09T00:22:14.033Z,14.30
2023-05-09T00:24:46.212Z,13.60
2023-05-09T00:27:18.811Z,12.70
2023-05-09T00:29:50.923Z,12.60
2023-05-09T00:32:23.261Z,12.20
2023-05-09T00:34:55.326Z,12.40
2023-05-09T00:37:27.457Z,12.70
2023-05-09T00:40:00.055Z,11.30
2023-05-09T00:42:32.221Z,12.30
2023-05-09T00:45:04.683Z,11.80
2023-05-09T00:47:37.337Z,11.80
2023-05-09T00:50:11.941Z,10.90
2023-05-09T00:52:44.062Z,15.20
2023-05-09T00:55:16.469Z,16.70
2023-05-09T00:57:48.947Z,16.80
2023-05-09T01:00:22.331Z,15.10
2023-05-09T01:02:57.356Z,15.50
2023-05-09T01:05:38.359Z,13.50
2023-05-09T01:08:19.251Z,13.00
2023-05-09T01:11:08.906Z,15.00
2023-05-09T01:13:47.400Z,13.70
2023-05-09T01:16:25.508Z,14.20
2023-05-09T01:19:08.518Z,12.60
2023-05-09T01:21:45.594Z,12.60
2023-05-09T01:24:35.534Z,13.90
2023-05-09T01:27:33.399Z,13.90
2023-05-09T01:30:08.627Z,13.30
2023-05-09T01:32:44.143Z,12.80
2023-05-09T01:35:17.849Z,13.20
2023-05-09T01:37:52.285Z,11.30
2023-05-09T01:40:26.805Z,12.50
2023-05-09T01:43:03.171Z,12.70
2023-05-09T01:45:36.189Z,14.60
2023-05-09T01:48:09.735Z,15.00
2023-05-09T01:50:45.107Z,15.50
2023-05-09T01:53:18.949Z,14.30
2023-05-09T01:55:53.966Z,13.20
2023-05-09T01:58:27.352Z,12.50
2023-05-09T02:01:00.479Z,12.50
2023-05-09T02:03:34.251Z,12.50
2023-05-09T02:06:07.334Z,13.50
2023-05-09T02:08:40.105Z,13.20
2023-05-09T02:11:12.179Z,13.90
2023-05-09T02:13:44.443Z,13.60
2023-05-09T02:16:17.147Z,12.90
2023-05-09T02:18:49.322Z,12.60
2023-05-09T02:21:21.457Z,13.10
2023-05-09T02:23:53.529Z,11.80
2023-05-09T02:26:27.128Z,11.30
2023-05-09T02:29:02.117Z,13.20
2023-05-09T02:31:35.182Z,13.30
2023-05-09T02:34:08.560Z,14.10
2023-05-09T02:36:41.298Z,14.10
2023-05-09T02:39:13.734Z,13.70
2023-05-09T02:41:51.104Z,12.30
2023-05-09T02:44:24.030Z,13.00
2023-05-09T02:46:56.130Z,13.70
2023-05-09T02:49:32.296Z,13.00
2023-05-09T02:52:06.096Z,11.60
2023-05-09T02:54:38.443Z,14.00
2023-05-09T02:57:10.803Z,12.60
2023-05-09T02:59:42.975Z,12.40
2023-05-09T03:02:15.104Z,12.70
2023-05-09T03:04:47.427Z,13.10
2023-05-09T03:07:19.947Z,14.20
2023-05-09T03:09:52.019Z,12.00
2023-05-09T03:12:24.309Z,13.90
2023-05-09T03:14:58.176Z,11.00
2023-05-09T03:17:30.161Z,11.90
2023-05-09T03:20:04.253Z,15.20
2023-05-09T03:22:36.666Z,15.60
2023-05-09T03:25:10.904Z,15.40
2023-05-09T03:27:44.070Z,14.70
2023-05-09T03:30:19.418Z,14.10
2023-05-09T03:32:53.369Z,13.80
2023-05-09T03:35:26.007Z,13.90
2023-05-09T03:37:58.807Z,13.70
2023-05-09T03:40:30.818Z,14.20
2023-05-09T03:43:10.276Z,13.80
2023-05-09T03:45:42.537Z,14.80
2023-05-09T03:48:15.125Z,13.30
2023-05-09T03:50:51.186Z,14.10
2023-05-09T03:53:24.258Z,14.40
2023-05-09T03:55:57.072Z,13.00
2023-05-09T03:58:29.997Z,13.70
2023-05-09T04:01:02.848Z,13.00
2023-05-09T04:03:35.305Z,14.10
2023-05-09T04:06:08.235Z,15.40
2023-05-09T04:08:43.553Z,16.20
2023-05-09T04:11:15.647Z,16.00
2023-05-09T04:13:50.578Z,15.70
2023-05-09T04:16:34.825Z,14.30
2023-05-09T04:19:07.418Z,14.50
2023-05-09T04:21:40.680Z,13.80
2023-05-09T04:24:13.707Z,15.80
2023-05-09T04:26:48.121Z,14.20
2023-05-09T04:29:22.958Z,14.80
2023-05-09T04:31:58.457Z,13.70
2023-05-09T04:34:31.777Z,13.30
2023-05-09T04:37:06.997Z,14.20
2023-05-09T04:39:39.770Z,12.10
2023-05-09T04:42:18.683Z,11.10
2023-05-09T04:44:51.978Z,12.30
2023-05-09T04:47:24.742Z,12.30
2023-05-09T04:49:56.792Z,12.30
2023-05-09T04:52:28.862Z,11.10
2023-05-09T04:55:01.289Z,11.90
2023-05-09T04:57:36.357Z,11.10
2023-05-09T05:00:12.868Z,14.00
2023-05-09T05:02:47.528Z,13.80
2023-05-09T05:05:24.965Z,13.40
2023-05-09T05:07:58.412Z,11.80
2023-05-09T05:10:34.555Z,9.90
2023-05-09T05:13:11.184Z,11.50
2023-05-09T05:15:46.264Z,9.90
2023-05-09T05:18:19.681Z,10.30
2023-05-09T05:20:51.681Z,9.30
2023-05-09T05:23:24.035Z,8.50
2023-05-09T05:25:57.976Z,9.90
2023-05-09T05:28:30.330Z,8.90
2023-05-09T05:31:03.082Z,7.80
2023-05-09T05:33:35.119Z,7.00
2023-05-09T05:36:08.442Z,8.30
2023-05-09T05:38:40.759Z,10.90
2023-05-09T05:41:12.778Z,8.80
2023-05-09T05:43:45.311Z,8.00
2023-05-09T05:46:19.266Z,8.70
2023-05-09T05:48:51.981Z,8.00
2023-05-09T05:51:24.061Z,8.20
2023-05-09T05:53:56.463Z,6.90
2023-05-09T05:56:28.894Z,6.80
2023-05-09T05:59:01.377Z,7.30
2023-05-09T06:01:33.407Z,6.40
2023-05-09T06:04:05.786Z,8.50
2023-05-09T06:06:38.762Z,7.90
2023-05-09T06:09:11.219Z,6.90
2023-05-09T06:11:43.268Z,6.60
2023-05-09T06:14:16.552Z,7.70
2023-05-09T06:16:49.061Z,7.80
2023-05-09T06:19:21.676Z,6.40
2023-05-09T06:21:54.460Z,7.50
2023-05-09T06:24:35.691Z,5.10
2023-05-09T06:27:09.156Z,6.40
2023-05-09T06:29:41.195Z,5.90
2023-05-09T06:32:13.275Z,7.00
2023-05-09T06:34:45.367Z,6.30
2023-05-09T06:37:17.814Z,6.70
2023-05-09T06:39:51.138Z,6.50
2023-05-09T06:42:23.484Z,7.90
2023-05-09T06:44:55.824Z,6.30
2023-05-09T06:47:28.027Z,7.00
2023-05-09T06:50:00.097Z,6.50
2023-05-09T06:52:32.756Z,5.70
2023-05-09T06:55:04.971Z,6.30
2023-05-09T06:57:37.240Z,7.60
2023-05-09T07:00:12.987Z,5.80
2023-05-09T07:02:45.606Z,6.40
2023-05-09T07:05:18.486Z,7.20
2023-05-09T07:07:51.762Z,5.70
2023-05-09T07:10:27.638Z,6.10
2023-05-09T07:13:00.403Z,6.20
2023-05-09T07:15:41.813Z,6.80
2023-05-09T07:18:16.388Z,6.60
2023-05-09T07:20:48.684Z,6.90
2023-05-09T07:23:21.314Z,6.20
2023-05-09T07:25:59.795Z,6.60
2023-05-09T07:28:32.011Z,6.70
2023-05-09T07:31:07.303Z,6.70
2023-05-09T07:33:39.726Z,6.00
2023-05-09T07:36:13.855Z,6.30
2023-05-09T07:38:52.588Z,6.20
2023-05-09T07:41:25.398Z,6.10
2023-05-09T07:43:58.527Z,6.60
2023-05-09T07:46:31.249Z,5.20
2023-05-09T07:49:03.902Z,5.40
2023-05-09T07:51:36.255Z,5.30
2023-05-09T07:54:10.702Z,5.50
2023-05-09T07:56:43.423Z,5.10
2023-05-09T07:59:15.600Z,5.20
2023-05-09T08:01:49.399Z,5.10
2023-05-09T08:04:21.761Z,5.00
2023-05-09T08:06:54.039Z,5.30
2023-05-09T08:09:26.840Z,5.70
2023-05-09T08:11:59.660Z,5.20
2023-05-09T08:14:31.935Z,5.00
2023-05-09T08:17:04.105Z,5.10
2023-05-09T08:19:36.290Z,4.80
2023-05-09T08:22:08.651Z,4.20
2023-05-09T08:24:40.912Z,4.30
2023-05-09T08:27:14.109Z,5.90
2023-05-09T08:29:46.476Z,4.70
2023-05-09T08:32:20.067Z,4.90
2023-05-09T08:34:52.466Z,4.30
2023-05-09T08:37:24.728Z,5.30
2023-05-09T08:39:56.837Z,4.90
2023-05-09T08:42:31.526Z,4.80
2023-05-09T08:45:07.721Z,4.40
2023-05-09T08:47:40.436Z,4.50
2023-05-09T08:50:15.898Z,3.80
2023-05-09T08:55:19.982Z,4.10
2023-05-09T08:57:53.246Z,4.20
2023-05-09T09:00:26.762Z,3.10
2023-05-09T09:03:02.732Z,3.70
2023-05-09T09:05:41.807Z,4.10
2023-05-09T09:08:15.532Z,3.80
2023-05-09T09:10:48.831Z,3.20
2023-05-09T09:13:22.024Z,4.00
2023-05-09T09:15:59.298Z,3.60
2023-05-09T09:18:34.960Z,4.10
2023-05-09T09:21:11.031Z,3.80
2023-05-09T09:23:45.500Z,3.90
2023-05-09T09:26:19.351Z,3.10
2023-05-09T09:28:52.133Z,4.00
2023-05-09T09:31:26.317Z,4.00
2023-05-09T09:34:05.073Z,4.20
2023-05-09T09:36:37.668Z,3.60
2023-05-09T09:39:10.505Z,4.60
2023-05-09T09:41:45.456Z,4.30
2023-05-09T09:44:19.443Z,4.50
2023-05-09T09:46:52.992Z,4.40
2023-05-09T09:49:27.913Z,4.40
2023-05-09T09:52:01.009Z,4.60
2023-05-09T09:54:36.472Z,4.70
2023-05-09T09:57:09.570Z,4.90
2023-05-09T09:59:42.798Z,4.80
2023-05-09T10:02:15.211Z,4.50
2023-05-09T10:04:47.393Z,5.00
2023-05-09T10:07:24.149Z,4.50
2023-05-09T10:09:56.207Z,4.20
2023-05-09T10:12:28.524Z,4.90
2023-05-09T10:15:00.383Z,4.30
2023-05-09T10:17:33.882Z,4.80
2023-05-09T10:20:10.261Z,4.70
2023-05-09T10:22:43.309Z,5.30
2023-05-09T10:25:20.738Z,5.30
2023-05-09T10:27:55.338Z,5.00
2023-05-09T10:30:35.779Z,5.30
2023-05-09T10:33:12.492Z,5.00
2023-05-09T10:35:49.457Z,5.00
2023-05-09T10:38:22.011Z,4.60
2023-05-09T10:40:56.134Z,4.60
2023-05-09T10:43:29.013Z,5.70
2023-05-09T10:46:01.444Z,4.90
2023-05-09T10:48:35.337Z,3.80
2023-05-09T10:51:08.804Z,5.00
2023-05-09T10:53:48.740Z,4.70
2023-05-09T10:56:30.754Z,4.70
2023-05-09T10:59:03.152Z,5.10
2023-05-09T11:01:39.739Z,4.50
2023-05-09T11:04:15.361Z,4.30
2023-05-09T11:06:54.009Z,4.90
2023-05-09T11:09:38.286Z,4.40
2023-05-09T11:12:14.919Z,4.70
2023-05-09T11:14:48.915Z,4.30
2023-05-09T11:17:33.116Z,5.60
2023-05-09T11:20:07.582Z,6.20
2023-05-09T11:22:44.692Z,5.00
2023-05-09T11:25:19.541Z,4.90
2023-05-09T11:27:52.594Z,5.50
2023-05-09T11:30:36.345Z,4.70
2023-05-09T11:33:23.167Z,4.80
2023-05-09T11:36:19.588Z,5.20
2023-05-09T11:39:01.073Z,4.90
2023-05-09T11:41:39.610Z,4.90
2023-05-09T11:44:20.922Z,4.50
2023-05-09T11:46:53.246Z,4.80
2023-05-09T11:49:25.388Z,4.30
2023-05-09T11:52:00.660Z,4.70
2023-05-09T11:57:04.907Z,4.40
2023-05-09T11:59:39.842Z,4.50
2023-05-09T12:02:12.402Z,4.20
2023-05-09T12:04:44.899Z,8.10
2023-05-09T12:07:18.722Z,4.30
2023-05-09T12:09:54.550Z,4.60
2023-05-09T12:12:27.008Z,4.90
2023-05-09T12:15:03.103Z,5.00
2023-05-09T12:17:35.328Z,4.80
2023-05-09T12:20:09.089Z,4.80
2023-05-09T12:22:43.897Z,4.70
2023-05-09T12:25:16.991Z,4.50
2023-05-09T12:27:49.669Z,4.40
2023-05-09T12:30:22.081Z,4.00
2023-05-09T12:32:54.435Z,4.10
2023-05-09T12:35:27.212Z,3.80
2023-05-09T12:38:01.960Z,4.50
2023-05-09T12:40:36.773Z,4.00
2023-05-09T12:43:10.168Z,3.70
2023-05-09T12:45:43.774Z,5.20
2023-05-09T12:48:16.680Z,3.90
2023-05-09T12:50:51.290Z,3.50
2023-05-09T12:53:31.574Z,4.40
2023-05-09T12:56:13.077Z,3.60
2023-05-09T12:58:52.465Z,2.90
2023-05-09T13:01:29.728Z,3.30
2023-05-09T13:04:07.492Z,3.10
2023-05-09T13:06:51.387Z,3.10
2023-05-09T13:09:24.111Z,3.60
2023-05-09T13:11:59.656Z,3.00
2023-05-09T13:14:31.988Z,3.20
2023-05-09T13:17:04.651Z,3.10
2023-05-09T13:19:39.523Z,3.00
2023-05-09T13:22:12.443Z,2.60
2023-05-09T13:24:44.778Z,3.40
2023-05-09T13:27:17.181Z,3.10
2023-05-09T13:29:49.520Z,2.70
2023-05-09T13:32:22.106Z,3.40
2023-05-09T13:34:56.117Z,2.80
2023-05-09T13:37:30.583Z,3.30
2023-05-09T13:40:02.872Z,2.50
2023-05-09T13:42:38.330Z,3.20
2023-05-09T13:45:12.568Z,3.10
2023-05-09T13:47:44.828Z,3.00
2023-05-09T13:50:17.180Z,2.90
2023-05-09T13:52:50.510Z,2.90
2023-05-09T13:55:23.016Z,3.80
2023-05-09T13:57:55.094Z,3.30
2023-05-09T14:00:28.055Z,3.30
2023-05-09T14:03:00.196Z,2.60
2023-05-09T14:05:35.322Z,3.70
2023-05-09T14:08:09.589Z,3.10
2023-05-09T14:10:42.046Z,2.80
2023-05-09T14:13:15.758Z,2.70
2023-05-09T14:15:48.038Z,4.80
2023-05-09T14:18:21.079Z,3.20
2023-05-09T14:20:53.771Z,4.60
2023-05-09T14:23:25.938Z,3.20
2023-05-09T14:25:58.353Z,3.10
2023-05-09T14:28:30.458Z,2.90
2023-05-09T14:31:02.702Z,3.20
2023-05-09T14:33:36.201Z,3.20
2023-05-09T14:36:08.908Z,3.20
2023-05-09T14:38:41.697Z,3.40
2023-05-09T14:41:15.556Z,3.30
2023-05-09T14:43:48.729Z,3.10
2023-05-09T14:46:24.969Z,3.10
2023-05-09T14:49:02.979Z,3.20
2023-05-09T14:51:35.020Z,2.90
2023-05-09T14:54:07.303Z,3.30
2023-05-09T14:56:39.335Z,3.00
2023-05-09T14:59:12.281Z,3.30
2023-05-09T15:01:45.673Z,3.30
2023-05-09T15:04:17.972Z,3.20
2023-05-09T15:06:50.176Z,3.20
2023-05-09T15:09:22.737Z,3.40
2023-05-09T15:11:55.221Z,3.50
2023-05-09T15:14:27.428Z,3.30
2023-05-09T15:17:03.456Z,3.10
2023-05-09T15:19:36.584Z,3.20
2023-05-09T15:22:09.409Z,3.30
2023-05-09T15:24:44.334Z,3.10
2023-05-09T15:27:16.469Z,3.20
2023-05-09T15:29:48.645Z,3.00
2023-05-09T15:32:20.923Z,3.30
2023-05-09T15:34:53.012Z,3.10
2023-05-09T15:37:25.155Z,3.20
2023-05-09T15:39:57.350Z,3.50
2023-05-09T15:42:29.903Z,3.40
2023-05-09T15:45:02.107Z,3.50
2023-05-09T15:47:34.383Z,3.00
2023-05-09T15:50:07.534Z,3.80
2023-05-09T15:52:39.907Z,4.70
2023-05-09T15:55:14.281Z,3.70
2023-05-09T15:57:48.433Z,3.40
2023-05-09T16:00:21.212Z,3.70
2023-05-09T16:02:53.884Z,4.60
2023-05-09T16:05:26.995Z,3.40
2023-05-09T16:07:59.269Z,3.10
2023-05-09T16:10:31.748Z,3.50
2023-05-09T16:13:04.081Z,3.90
2023-05-09T16:15:36.657Z,3.80
2023-05-09T16:18:08.954Z,5.20
2023-05-09T16:20:42.363Z,3.60
2023-05-09T16:23:14.549Z,3.00
2023-05-09T16:25:49.869Z,16.40
2023-05-09T16:28:23.702Z,4.20
2023-05-09T16:30:55.976Z,3.00
2023-05-09T16:33:28.280Z,3.70
2023-05-09T16:36:01.968Z,22.50
2023-05-09T16:38:34.370Z,4.20
2023-05-09T16:41:06.655Z,3.30
2023-05-09T16:43:40.289Z,3.50
2023-05-09T16:46:12.636Z,3.00
2023-05-09T16:48:45.128Z,2.80
2023-05-09T16:51:18.255Z,3.00
2023-05-09T16:53:50.615Z,3.40
2023-05-09T16:56:23.909Z,2.90
2023-05-09T16:58:56.008Z,2.60
2023-05-09T17:01:28.127Z,4.50
2023-05-09T17:04:01.769Z,3.10
2023-05-09T17:06:34.499Z,2.60
2023-05-09T17:09:07.220Z,3.50
2023-05-09T17:11:39.759Z,3.10
2023-05-09T17:14:12.239Z,2.80
2023-05-09T17:16:45.387Z,2.80
2023-05-09T17:19:19.055Z,3.30
2023-05-09T17:21:56.280Z,3.20
2023-05-09T17:24:29.634Z,2.50
2023-05-09T17:27:02.291Z,3.30
2023-05-09T17:29:34.822Z,2.70
2023-05-09T17:32:07.900Z,3.10
2023-05-09T17:34:40.752Z,3.80
2023-05-09T17:37:13.210Z,2.60
2023-05-09T17:39:49.528Z,2.40
2023-05-09T17:42:21.990Z,4.00
2023-05-09T17:44:55.085Z,4.20
2023-05-09T17:47:27.490Z,3.50
2023-05-09T17:50:00.013Z,4.10
2023-05-09T17:52:32.503Z,5.40
2023-05-09T17:55:07.833Z,5.90
2023-05-09T17:57:40.932Z,4.60
2023-05-09T18:00:16.613Z,6.30
2023-05-09T18:02:51.114Z,4.70
2023-05-09T18:05:26.158Z,4.80
2023-05-09T18:08:03.728Z,4.00
2023-05-09T18:10:36.258Z,3.80
2023-05-09T18:13:09.186Z,3.20
2023-05-09T18:15:41.942Z,3.30
2023-05-09T18:18:15.847Z,3.00
2023-05-09T18:20:49.173Z,3.00
2023-05-09T18:23:25.022Z,3.40
2023-05-09T18:25:57.597Z,5.30
2023-05-09T18:28:30.691Z,5.80
2023-05-09T18:31:06.402Z,5.80
2023-05-09T18:33:45.525Z,6.60
2023-05-09T18:36:22.145Z,8.00
2023-05-09T18:38:54.788Z,9.70
2023-05-09T18:41:32.229Z,10.00
2023-05-09T18:44:07.272Z,8.80
2023-05-09T18:46:41.528Z,9.30
2023-05-09T18:49:17.384Z,8.00
2023-05-09T18:51:51.161Z,7.20
2023-05-09T18:54:23.768Z,8.90
2023-05-09T18:56:57.225Z,7.20
2023-05-09T18:59:32.053Z,5.90
2023-05-09T19:02:04.893Z,5.60
2023-05-09T19:04:37.778Z,4.90
2023-05-09T19:07:10.707Z,4.80
2023-05-09T19:09:43.974Z,4.70
2023-05-09T19:12:17.811Z,5.00
2023-05-09T19:14:50.591Z,4.10
2023-05-09T19:17:25.825Z,4.30
2023-05-09T19:19:58.687Z,5.00
2023-05-09T19:22:31.745Z,6.40
2023-05-09T19:25:05.298Z,7.00
2023-05-09T19:27:37.922Z,7.90
2023-05-09T19:30:13.294Z,7.00
2023-05-09T19:32:49.459Z,6.80
2023-05-09T19:35:28.302Z,5.30
2023-05-09T19:38:01.428Z,4.30
2023-05-09T19:40:36.182Z,4.70
2023-05-09T19:43:08.820Z,3.70
2023-05-09T19:46:09.399Z,4.20
2023-05-09T19:48:47.309Z,3.80
2023-05-09T19:51:20.057Z,9.70
2023-05-09T19:53:52.750Z,15.00
2023-05-09T19:56:25.914Z,9.00
2023-05-09T19:59:15.088Z,9.50
2023-05-09T20:01:57.118Z,6.80
2023-05-09T20:04:32.182Z,5.50
2023-05-09T20:07:04.925Z,5.60
2023-05-09T20:09:40.143Z,4.90
2023-05-09T20:12:15.792Z,4.80
2023-05-09T20:15:31.824Z,5.40
2023-05-09T20:18:19.773Z,5.10
2023-05-09T20:20:52.130Z,4.90
2023-05-09T20:23:25.504Z,4.90
2023-05-09T20:25:58.311Z,6.80
2023-05-09T20:28:33.027Z,8.10
2023-05-09T20:31:05.475Z,7.90
2023-05-09T20:33:40.108Z,6.20
2023-05-09T20:36:12.585Z,8.00
2023-05-09T20:38:45.154Z,8.90
2023-05-09T20:41:17.467Z,6.00
2023-05-09T20:43:51.036Z,5.90
2023-05-09T20:46:23.342Z,5.50
2023-05-09T20:48:56.007Z,5.40
2023-05-09T20:51:28.384Z,4.80
2023-05-09T20:54:01.140Z,4.60
2023-05-09T20:56:35.510Z,4.80
2023-05-09T20:59:08.859Z,4.70
2023-05-09T21:01:45.396Z,4.50
2023-05-09T21:04:18.131Z,4.80
2023-05-09T21:06:50.872Z,5.00
2023-05-09T21:09:23.086Z,4.60
2023-05-09T21:11:55.148Z,4.30
2023-05-09T21:14:27.833Z,4.30
2023-05-09T21:17:00.204Z,4.20
2023-05-09T21:19:32.425Z,4.50
2023-05-09T21:22:04.654Z,4.70
2023-05-09T21:24:36.657Z,5.10
2023-05-09T21:27:08.897Z,5.10
2023-05-09T21:29:41.121Z,5.40
2023-05-09T21:32:13.173Z,5.70
2023-05-09T21:34:45.462Z,8.10
2023-05-09T21:37:17.613Z,9.90
2023-05-09T21:39:49.694Z,9.60
2023-05-09T21:42:23.141Z,6.60
2023-05-09T21:44:55.244Z,5.50
2023-05-09T21:47:27.382Z,4.90
2023-05-09T21:49:59.570Z,5.30
2023-05-09T21:52:31.602Z,5.20
2023-05-09T21:55:04.046Z,3.90
2023-05-09T21:57:36.100Z,6.00
2023-05-09T22:00:14.525Z,6.10
2023-05-09T22:02:47.157Z,5.40
2023-05-09T22:05:19.242Z,5.00
2023-05-09T22:07:51.945Z,4.80
2023-05-09T22:10:24.223Z,4.60
2023-05-09T22:12:57.169Z,4.50
2023-05-09T22:15:29.426Z,4.20
2023-05-09T22:18:01.837Z,4.80
2023-05-09T22:20:34.003Z,4.90
2023-05-09T22:23:06.302Z,4.60
2023-05-09T22:25:38.476Z,6.00
2023-05-09T22:28:10.664Z,4.90
2023-05-09T22:30:42.848Z,5.10
2023-05-09T22:33:14.994Z,5.90
2023-05-09T22:35:47.044Z,5.10
2023-05-09T22:38:19.096Z,5.40
2023-05-09T22:40:51.030Z,5.90
2023-05-09T22:43:24.277Z,5.40
2023-05-09T22:48:29.458Z,5.10
2023-05-09T22:51:01.528Z,5.80
2023-05-09T22:53:34.050Z,5.50
2023-05-09T22:56:07.684Z,5.50
2023-05-09T22:58:39.904Z,5.20
2023-05-09T23:01:12.035Z,5.60
2023-05-09T23:03:44.127Z,6.40
2023-05-09T23:06:16.283Z,7.60
2023-05-09T23:08:48.339Z,8.40
2023-05-09T23:11:21.115Z,9.50
2023-05-09T23:13:53.416Z,10.10
2023-05-09T23:16:25.559Z,8.80
2023-05-09T23:18:57.757Z,8.60
2023-05-09T23:21:30.309Z,7.30
2023-05-09T23:24:02.381Z,7.60
2023-05-09T23:26:34.399Z,7.30
2023-05-09T23:29:06.583Z,7.90
2023-05-09T23:31:38.620Z,7.60
2023-05-09T23:34:10.752Z,7.60
2023-05-09T23:36:42.872Z,7.20
2023-05-09T23:39:14.940Z,7.20
2023-05-09T23:41:46.911Z,6.70
2023-05-09T23:44:19.019Z,6.70
2023-05-09T23:46:51.108Z,6.40
2023-05-09T23:49:23.147Z,6.90
2023-05-09T23:51:55.175Z,5.90
2023-05-09T23:54:27.293Z,5.30
2023-05-09T23:56:59.407Z,6.00
2023-05-09T23:59:31.579Z,5.60
